East Olympia, Washington
Current Conditions -  °F | °C
As of 7:54 AM on Monday 24 Nov 2014 (Local Time) from KOLM Reporting Station
Overcast Overcast  
Wind Chill: 38°   Ceiling: 1600
Heat Index: 42°   Visibility: 10mi
Dew Point: 40°   Wind: 7mph
Humidity: 92%   Direction: 240°WSW
Pressure: 30.34"   Gusts: NA
Location:  46.97°N, 122.84°W
Report Text: KOLM 241554Z 24006KT 10SM OVC016 06/04 A3034 RMK AO2 SLP276 T00560044
Loading
Personal Weather Stations






























Interactive Weather Map New forecast layout! Learn more

10-Day Weather Forecast

Advertisements
Track Severe Weather on mobile